Main page
METAR-TAF:

METAR-TAF

Airports :

Graz Airport

Graz, Austria

latitude: 47-00N, longitude: 015-26E, elevation: 340 m

Current weather observation

The report was made 24 minutes ago, at 10:20 UTC
Wind 4 kt from the South, varying between Southeast and Southwest
Temperature 14°C
Humidity 58%
Pressure 1022 hPa
Visibility 10 km or more
no clouds below 1500 m and no cumulonimbus

METAR: LOWG 231020Z 17004KT 130V220 CAVOK 14/06 Q1022 NOSIG

Time: 12:44 (10:44 UTC)

Forecast

The report was made 5 hours and 29 minutes ago, at 05:15 UTC
Forecast valid from 23 at 06 UTC to 24 at 06 UTC
Wind 5 kt from the South/Southeast
Visibility 10 km or more
no clouds below 1500 m and no cumulonimbus
Temporary
from 23 at 19 UTC to 24 at 02 UTC
Wind 8 kt from the Southwest
Visibility 10 km or more
Broken clouds at a height of 6500 ft

TAF: LOWG 230515Z 2306/2406 16005KT CAVOK TX16/2314Z TN03/2306Z TEMPO 2319/2402 22008KT 9999 BKN065

Weather observations and forecasts of more than 4000 airports (METAR and TAF reports).

The available stations are represented by yellow and red dots on the map.

Hover mouse over dot to see the name of the station.

Then click to see weather observations and forecasts.

To change the map : click on the green buttons with a black cross to zoom in, on the green button with a dash to zoom out, or on the green arrows for adjacent maps.


METAR-TAF: